sensor_id;sensor_type;location;lat;lon;timestamp;pressure;altitude;pressure_sealevel;temperature;humidity
67099;BME280;54288;53.046;5.668;2023-04-28T00:01:21;101742.81;;;6.85;100.00
67099;BME280;54288;53.046;5.668;2023-04-28T00:03:46;101731.53;;;6.83;100.00
67099;BME280;54288;53.046;5.668;2023-04-28T00:06:12;101730.66;;;6.84;100.00
67099;BME280;54288;53.046;5.668;2023-04-28T00:08:39;101726.34;;;6.83;100.00
67099;BME280;54288;53.046;5.668;2023-04-28T00:11:11;101721.13;;;6.83;100.00
67099;BME280;54288;53.046;5.668;2023-04-28T00:13:37;101719.38;;;6.82;100.00
67099;BME280;54288;53.046;5.668;2023-04-28T00:16:03;101724.63;;;6.84;100.00
67099;BME280;54288;53.046;5.668;2023-04-28T00:18:29;101717.66;;;6.81;100.00
67099;BME280;54288;53.046;5.668;2023-04-28T00:20:55;101710.69;;;6.82;100.00
67099;BME280;54288;53.046;5.668;2023-04-28T00:23:21;101716.78;;;6.82;100.00
67099;BME280;54288;53.046;5.668;2023-04-28T00:25:51;101715.91;;;6.80;100.00
67099;BME280;54288;53.046;5.668;2023-04-28T00:28:17;101710.66;;;6.77;100.00
67099;BME280;54288;53.046;5.668;2023-04-28T00:30:42;101710.63;;;6.76;100.00
67099;BME280;54288;53.046;5.668;2023-04-28T00:33:08;101701.13;;;6.76;100.00
67099;BME280;54288;53.046;5.668;2023-04-28T00:35:34;101699.38;;;6.78;100.00
67099;BME280;54288;53.046;5.668;2023-04-28T00:38:00;101688.09;;;6.79;100.00
67099;BME280;54288;53.046;5.668;2023-04-28T00:40:35;101675.97;;;6.77;100.00
67099;BME280;54288;53.046;5.668;2023-04-28T00:43:01;101668.16;;;6.75;100.00
67099;BME280;54288;53.046;5.668;2023-04-28T00:45:27;101654.22;;;6.73;100.00
67099;BME280;54288;53.046;5.668;2023-04-28T00:47:54;101662.91;;;6.72;100.00
67099;BME280;54288;53.046;5.668;2023-04-28T00:50:22;101649.84;;;6.68;100.00
67099;BME280;54288;53.046;5.668;2023-04-28T00:52:49;101655.06;;;6.68;100.00
67099;BME280;54288;53.046;5.668;2023-04-28T00:55:16;101641.19;;;6.69;100.00
67099;BME280;54288;53.046;5.668;2023-04-28T00:57:42;101635.97;;;6.67;100.00
67099;BME280;54288;53.046;5.668;2023-04-28T01:00:08;101629.00;;;6.63;100.00
67099;BME280;54288;53.046;5.668;2023-04-28T01:02:35;101637.66;;;6.62;100.00
67099;BME280;54288;53.046;5.668;2023-04-28T01:05:02;101639.41;;;6.62;100.00
67099;BME280;54288;53.046;5.668;2023-04-28T01:07:28;101628.06;;;6.55;100.00
67099;BME280;54288;53.046;5.668;2023-04-28T01:09:55;101631.53;;;6.54;100.00
67099;BME280;54288;53.046;5.668;2023-04-28T01:12:26;101626.31;;;6.51;100.00
67099;BME280;54288;53.046;5.668;2023-04-28T01:14:55;101621.06;;;6.48;100.00
67099;BME280;54288;53.046;5.668;2023-04-28T01:17:21;101624.50;;;6.44;100.00
67099;BME280;54288;53.046;5.668;2023-04-28T01:19:47;101625.31;;;6.39;100.00
67099;BME280;54288;53.046;5.668;2023-04-28T01:22:13;101621.84;;;6.35;100.00
67099;BME280;54288;53.046;5.668;2023-04-28T01:24:41;101619.19;;;6.32;100.00
67099;BME280;54288;53.046;5.668;2023-04-28T01:27:08;101608.75;;;6.28;100.00
67099;BME280;54288;53.046;5.668;2023-04-28T01:29:36;101617.44;;;6.30;100.00
67099;BME280;54288;53.046;5.668;2023-04-28T01:32:02;101611.34;;;6.28;100.00
67099;BME280;54288;53.046;5.668;2023-04-28T01:34:27;101613.97;;;6.29;100.00
67099;BME280;54288;53.046;5.668;2023-04-28T01:36:53;101612.22;;;6.27;100.00
67099;BME280;54288;53.046;5.668;2023-04-28T01:39:19;101602.66;;;6.24;100.00
67099;BME280;54288;53.046;5.668;2023-04-28T01:41:44;101605.25;;;6.24;100.00
67099;BME280;54288;53.046;5.668;2023-04-28T01:44:10;101600.91;;;6.25;100.00
67099;BME280;54288;53.046;5.668;2023-04-28T01:46:37;101596.59;;;6.25;100.00
67099;BME280;54288;53.046;5.668;2023-04-28T01:49:03;101591.38;;;6.25;100.00
67099;BME280;54288;53.046;5.668;2023-04-28T01:51:29;101587.91;;;6.25;100.00
67099;BME280;54288;53.046;5.668;2023-04-28T01:53:55;101588.81;;;6.27;100.00
67099;BME280;54288;53.046;5.668;2023-04-28T01:56:22;101578.41;;;6.27;100.00
67099;BME280;54288;53.046;5.668;2023-04-28T01:58:49;101572.31;;;6.26;100.00
67099;BME280;54288;53.046;5.668;2023-04-28T02:01:16;101568.84;;;6.24;100.00
67099;BME280;54288;53.046;5.668;2023-04-28T02:03:42;101564.50;;;6.22;100.00
67099;BME280;54288;53.046;5.668;2023-04-28T02:06:08;101559.25;;;6.19;100.00
67099;BME280;54288;53.046;5.668;2023-04-28T02:08:34;101557.50;;;6.16;100.00
67099;BME280;54288;53.046;5.668;2023-04-28T02:11:00;101552.31;;;6.15;100.00
67099;BME280;54288;53.046;5.668;2023-04-28T02:13:26;101558.34;;;6.12;100.00
67099;BME280;54288;53.046;5.668;2023-04-28T02:15:52;101551.38;;;6.10;100.00
67099;BME280;54288;53.046;5.668;2023-04-28T02:18:19;101551.38;;;6.08;100.00
67099;BME280;54288;53.046;5.668;2023-04-28T02:20:45;101540.97;;;6.08;100.00
67099;BME280;54288;53.046;5.668;2023-04-28T02:23:11;101537.50;;;6.06;100.00
67099;BME280;54288;53.046;5.668;2023-04-28T02:25:36;101541.78;;;6.04;100.00
67099;BME280;54288;53.046;5.668;2023-04-28T02:28:02;101533.13;;;6.05;100.00
67099;BME280;54288;53.046;5.668;2023-04-28T02:30:28;101531.38;;;6.04;100.00
67099;BME280;54288;53.046;5.668;2023-04-28T02:32:55;101529.66;;;6.05;100.00
67099;BME280;54288;53.046;5.668;2023-04-28T02:35:20;101525.34;;;6.07;100.00
67099;BME280;54288;53.046;5.668;2023-04-28T02:37:46;101528.81;;;6.06;100.00
67099;BME280;54288;53.046;5.668;2023-04-28T02:40:12;101527.94;;;6.07;100.00
67099;BME280;54288;53.046;5.668;2023-04-28T02:42:38;101522.75;;;6.08;100.00
67099;BME280;54288;53.046;5.668;2023-04-28T02:45:04;101514.09;;;6.09;100.00
67099;BME280;54288;53.046;5.668;2023-04-28T02:47:30;101521.03;;;6.07;100.00
67099;BME280;54288;53.046;5.668;2023-04-28T02:49:55;101522.75;;;6.07;100.00
67099;BME280;54288;53.046;5.668;2023-04-28T02:52:21;101521.03;;;6.07;100.00
67099;BME280;54288;53.046;5.668;2023-04-28T02:54:47;101518.44;;;6.07;100.00
67099;BME280;54288;53.046;5.668;2023-04-28T02:57:14;101507.13;;;6.07;100.00
67099;BME280;54288;53.046;5.668;2023-04-28T02:59:40;101511.50;;;6.09;100.00
67099;BME280;54288;53.046;5.668;2023-04-28T03:02:06;101511.50;;;6.09;100.00
67099;BME280;54288;53.046;5.668;2023-04-28T03:04:33;101500.25;;;6.09;100.00
67099;BME280;54288;53.046;5.668;2023-04-28T03:06:59;101501.06;;;6.08;100.00
67099;BME280;54288;53.046;5.668;2023-04-28T03:09:25;101489.84;;;6.09;100.00
67099;BME280;54288;53.046;5.668;2023-04-28T03:11:50;101485.50;;;6.09;100.00
67099;BME280;54288;53.046;5.668;2023-04-28T03:14:16;101484.63;;;6.10;100.00
67099;BME280;54288;53.046;5.668;2023-04-28T03:16:42;101484.66;;;6.12;100.00
67099;BME280;54288;53.046;5.668;2023-04-28T03:19:08;101475.13;;;6.12;100.00
67099;BME280;54288;53.046;5.668;2023-04-28T03:21:34;101475.97;;;6.11;100.00
67099;BME280;54288;53.046;5.668;2023-04-28T03:23:59;101461.28;;;6.13;100.00
67099;BME280;54288;53.046;5.668;2023-04-28T03:26:25;101453.50;;;6.15;100.00
67099;BME280;54288;53.046;5.668;2023-04-28T03:28:52;101456.94;;;6.14;100.00
67099;BME280;54288;53.046;5.668;2023-04-28T03:31:18;101446.56;;;6.17;100.00
67099;BME280;54288;53.046;5.668;2023-04-28T03:33:44;101440.50;;;6.19;100.00
67099;BME280;54288;53.046;5.668;2023-04-28T03:36:12;101443.97;;;6.18;100.00
67099;BME280;54288;53.046;5.668;2023-04-28T03:38:38;101437.91;;;6.18;100.00
67099;BME280;54288;53.046;5.668;2023-04-28T03:41:04;101423.19;;;6.18;100.00
67099;BME280;54288;53.046;5.668;2023-04-28T03:43:29;101434.44;;;6.16;100.00
67099;BME280;54288;53.046;5.668;2023-04-28T03:46:10;101439.59;;;6.13;100.00
67099;BME280;54288;53.046;5.668;2023-04-28T03:48:36;101425.75;;;6.12;100.00
67099;BME280;54288;53.046;5.668;2023-04-28T03:51:02;101423.13;;;6.12;100.00
67099;BME280;54288;53.046;5.668;2023-04-28T03:53:28;101426.59;;;6.10;100.00
67099;BME280;54288;53.046;5.668;2023-04-28T03:55:54;101422.22;;;6.07;100.00
67099;BME280;54288;53.046;5.668;2023-04-28T03:58:19;101418.78;;;6.11;100.00
67099;BME280;54288;53.046;5.668;2023-04-28T04:00:46;101407.50;;;6.09;100.00
67099;BME280;54288;53.046;5.668;2023-04-28T04:03:11;101392.78;;;6.10;100.00
67099;BME280;54288;53.046;5.668;2023-04-28T04:05:39;101388.44;;;6.07;100.00
67099;BME280;54288;53.046;5.668;2023-04-28T04:08:05;101391.91;;;6.06;100.00
67099;BME280;54288;53.046;5.668;2023-04-28T04:10:32;101391.00;;;6.04;100.00
67099;BME280;54288;53.046;5.668;2023-04-28T04:12:57;101393.63;;;6.06;100.00
67099;BME280;54288;53.046;5.668;2023-04-28T04:15:24;101398.84;;;6.07;100.00
67099;BME280;54288;53.046;5.668;2023-04-28T04:17:51;101392.78;;;6.08;100.00
67099;BME280;54288;53.046;5.668;2023-04-28T04:20:16;101395.38;;;6.08;100.00
67099;BME280;54288;53.046;5.668;2023-04-28T04:22:44;101400.56;;;6.08;100.00
67099;BME280;54288;53.046;5.668;2023-04-28T04:25:09;101398.84;;;6.09;100.00
67099;BME280;54288;53.046;5.668;2023-04-28T04:27:35;101394.47;;;6.08;100.00
67099;BME280;54288;53.046;5.668;2023-04-28T04:30:01;101392.78;;;6.10;100.00
67099;BME280;54288;53.046;5.668;2023-04-28T04:32:27;101382.38;;;6.08;100.00
67099;BME280;54288;53.046;5.668;2023-04-28T04:34:53;101387.59;;;6.13;100.00
67099;BME280;54288;53.046;5.668;2023-04-28T04:37:19;101384.13;;;6.12;100.00
67099;BME280;54288;53.046;5.668;2023-04-28T04:39:52;101385.00;;;6.14;100.00
67099;BME280;54288;53.046;5.668;2023-04-28T04:42:17;101366.81;;;6.16;100.00
67099;BME280;54288;53.046;5.668;2023-04-28T04:44:51;101371.16;;;6.18;100.00
67099;BME280;54288;53.046;5.668;2023-04-28T04:47:25;101363.34;;;6.20;100.00
67099;BME280;54288;53.046;5.668;2023-04-28T04:49:51;101356.47;;;6.23;100.00
67099;BME280;54288;53.046;5.668;2023-04-28T04:52:18;101357.34;;;6.28;100.00
67099;BME280;54288;53.046;5.668;2023-04-28T04:54:45;101358.22;;;6.33;100.00
67099;BME280;54288;53.046;5.668;2023-04-28T04:57:12;101353.06;;;6.36;100.00
67099;BME280;54288;53.046;5.668;2023-04-28T05:00:04;101353.09;;;6.44;100.00
67099;BME280;54288;53.046;5.668;2023-04-28T05:02:30;101344.41;;;6.48;100.00
67099;BME280;54288;53.046;5.668;2023-04-28T05:04:57;101347.06;;;6.52;100.00
67099;BME280;54288;53.046;5.668;2023-04-28T05:07:24;101354.00;;;6.55;100.00
67099;BME280;54288;53.046;5.668;2023-04-28T05:09:51;101351.41;;;6.55;100.00
67099;BME280;54288;53.046;5.668;2023-04-28T05:12:17;101347.06;;;6.58;100.00
67099;BME280;54288;53.046;5.668;2023-04-28T05:14:43;101338.38;;;6.58;100.00
67099;BME280;54288;53.046;5.668;2023-04-28T05:17:09;101346.19;;;6.62;100.00
67099;BME280;54288;53.046;5.668;2023-04-28T05:19:37;101343.63;;;6.64;100.00
67099;BME280;54288;53.046;5.668;2023-04-28T05:22:03;101345.38;;;6.69;100.00
67099;BME280;54288;53.046;5.668;2023-04-28T05:24:29;101346.25;;;6.71;100.00
67099;BME280;54288;53.046;5.668;2023-04-28T05:26:57;101338.44;;;6.71;100.00
67099;BME280;54288;53.046;5.668;2023-04-28T05:29:23;101332.38;;;6.74;100.00
67099;BME280;54288;53.046;5.668;2023-04-28T05:31:49;101328.03;;;6.77;100.00
67099;BME280;54288;53.046;5.668;2023-04-28T05:34:15;101321.09;;;6.79;100.00
67099;BME280;54288;53.046;5.668;2023-04-28T05:36:41;101322.84;;;6.83;100.00
67099;BME280;54288;53.046;5.668;2023-04-28T05:39:09;101324.59;;;6.87;100.00
67099;BME280;54288;53.046;5.668;2023-04-28T05:41:37;101324.59;;;6.90;100.00
67099;BME280;54288;53.046;5.668;2023-04-28T05:44:02;101328.09;;;6.92;100.00
67099;BME280;54288;53.046;5.668;2023-04-28T05:46:28;101325.50;;;6.97;100.00
67099;BME280;54288;53.046;5.668;2023-04-28T05:48:54;101332.44;;;6.98;100.00
67099;BME280;54288;53.046;5.668;2023-04-28T05:51:21;101323.75;;;7.02;100.00
67099;BME280;54288;53.046;5.668;2023-04-28T05:53:47;101324.63;;;7.02;100.00
67099;BME280;54288;53.046;5.668;2023-04-28T06:04:19;101309.00;;;7.17;100.00
67099;BME280;54288;53.046;5.668;2023-04-28T07:37:03;101304.69;;;7.22;100.00
67099;BME280;54288;53.046;5.668;2023-04-28T07:40:04;101302.94;;;7.32;100.00
67099;BME280;54288;53.046;5.668;2023-04-28T07:50:31;101287.31;;;7.41;100.00
67099;BME280;54288;53.046;5.668;2023-04-28T07:52:58;101289.03;;;7.40;100.00
67099;BME280;54288;53.046;5.668;2023-04-28T07:55:24;101283.81;;;7.39;100.00
67099;BME280;54288;53.046;5.668;2023-04-28T07:57:51;101292.50;;;7.44;100.00
67099;BME280;54288;53.046;5.668;2023-04-28T08:00:17;101280.34;;;7.43;100.00
67099;BME280;54288;53.046;5.668;2023-04-28T08:11:11;101245.47;;;8.02;100.00
67099;BME280;54288;53.046;5.668;2023-04-28T08:13:37;101249.81;;;8.08;100.00
67099;BME280;54288;53.046;5.668;2023-04-28T08:16:03;101241.97;;;8.14;100.00
67099;BME280;54288;53.046;5.668;2023-04-28T08:18:30;101255.84;;;8.13;100.00
67099;BME280;54288;53.046;5.668;2023-04-28T08:20:56;101258.47;;;8.17;100.00
67099;BME280;54288;53.046;5.668;2023-04-28T08:23:21;101254.94;;;8.29;100.00
67099;BME280;54288;53.046;5.668;2023-04-28T08:25:48;101252.31;;;8.35;100.00
67099;BME280;54288;53.046;5.668;2023-04-28T08:28:14;101255.81;;;8.31;100.00
67099;BME280;54288;53.046;5.668;2023-04-28T08:30:40;101252.34;;;8.32;100.00
67099;BME280;54288;53.046;5.668;2023-04-28T08:33:05;101249.72;;;8.30;100.00
67099;BME280;54288;53.046;5.668;2023-04-28T08:35:31;101254.88;;;8.45;100.00
67099;BME280;54288;53.046;5.668;2023-04-28T08:37:57;101253.09;;;8.53;100.00
67099;BME280;54288;53.046;5.668;2023-04-28T08:40:23;101244.31;;;8.63;100.00
67099;BME280;54288;53.046;5.668;2023-04-28T08:42:50;101244.25;;;8.77;100.00
67099;BME280;54288;53.046;5.668;2023-04-28T08:45:15;101236.38;;;8.78;100.00
67099;BME280;54288;53.046;5.668;2023-04-28T08:47:42;101230.25;;;8.82;100.00
67099;BME280;54288;53.046;5.668;2023-04-28T08:50:13;101219.84;;;8.79;100.00
67099;BME280;54288;53.046;5.668;2023-04-28T08:52:40;101211.97;;;8.85;100.00
67099;BME280;54288;53.046;5.668;2023-04-28T08:55:08;101211.00;;;8.95;100.00
67099;BME280;54288;53.046;5.668;2023-04-28T08:57:39;101193.50;;;9.06;100.00
67099;BME280;54288;53.046;5.668;2023-04-28T09:00:06;101193.22;;;9.36;100.00
67099;BME280;54288;53.046;5.668;2023-04-28T09:02:32;101191.78;;;9.87;100.00
67099;BME280;54288;53.046;5.668;2023-04-28T09:04:58;101189.69;;;10.14;100.00
67099;BME280;54288;53.046;5.668;2023-04-28T09:07:23;101190.66;;;10.09;100.00
67099;BME280;54288;53.046;5.668;2023-04-28T09:09:49;101192.81;;;10.42;100.00
67099;BME280;54288;53.046;5.668;2023-04-28T09:12:17;101184.44;;;10.76;100.00
67099;BME280;54288;53.046;5.668;2023-04-28T09:14:42;101183.44;;;10.83;100.00
67099;BME280;54288;53.046;5.668;2023-04-28T09:17:10;101185.53;;;10.62;97.61
67099;BME280;54288;53.046;5.668;2023-04-28T09:19:40;101184.91;;;10.46;98.46
67099;BME280;54288;53.046;5.668;2023-04-28T09:22:08;101174.50;;;10.42;99.14
67099;BME280;54288;53.046;5.668;2023-04-28T09:24:39;101168.41;;;10.40;100.00
67099;BME280;54288;53.046;5.668;2023-04-28T09:27:08;101179.75;;;10.42;99.29
67099;BME280;54288;53.046;5.668;2023-04-28T09:29:51;101165.59;;;10.53;99.82
67099;BME280;54288;53.046;5.668;2023-04-28T09:32:19;101162.06;;;10.54;100.00
67099;BME280;54288;53.046;5.668;2023-04-28T09:34:49;101162.75;;;10.68;100.00
67099;BME280;54288;53.046;5.668;2023-04-28T09:37:21;101165.94;;;10.87;100.00
67099;BME280;54288;53.046;5.668;2023-04-28T09:39:49;101167.97;;;10.70;100.00
67099;BME280;54288;53.046;5.668;2023-04-28T09:42:42;101172.91;;;10.88;100.00
67099;BME280;54288;53.046;5.668;2023-04-28T09:45:12;101165.16;;;10.82;100.00
67099;BME280;54288;53.046;5.668;2023-04-28T09:47:44;101168.69;;;10.79;100.00
67099;BME280;54288;53.046;5.668;2023-04-28T09:50:13;101157.00;;;10.98;100.00
67099;BME280;54288;53.046;5.668;2023-04-28T09:52:44;101149.94;;;11.02;100.00
67099;BME280;54288;53.046;5.668;2023-04-28T09:55:13;101154.13;;;11.13;100.00
67099;BME280;54288;53.046;5.668;2023-04-28T09:57:43;101158.47;;;11.14;100.00
67099;BME280;54288;53.046;5.668;2023-04-28T10:00:11;101155.84;;;11.13;100.00
67099;BME280;54288;53.046;5.668;2023-04-28T10:02:37;101149.03;;;11.04;100.00
67099;BME280;54288;53.046;5.668;2023-04-28T10:05:04;101149.69;;;11.17;100.00
67099;BME280;54288;53.046;5.668;2023-04-28T10:07:33;101151.38;;;11.19;100.00
67099;BME280;54288;53.046;5.668;2023-04-28T10:10:00;101146.03;;;11.24;100.00
67099;BME280;54288;53.046;5.668;2023-04-28T10:12:28;101141.59;;;11.27;100.00
67099;BME280;54288;53.046;5.668;2023-04-28T10:14:54;101151.03;;;11.37;99.59
67099;BME280;54288;53.046;5.668;2023-04-28T10:17:21;101147.50;;;11.40;100.00
67099;BME280;54288;53.046;5.668;2023-04-28T10:19:52;101153.31;;;11.55;99.45
67099;BME280;54288;53.046;5.668;2023-04-28T10:23:05;101132.06;;;11.70;100.00
67099;BME280;54288;53.046;5.668;2023-04-28T10:27:41;101133.66;;;11.77;99.84
67099;BME280;54288;53.046;5.668;2023-04-28T10:30:18;101131.69;;;11.87;100.00
67099;BME280;54288;53.046;5.668;2023-04-28T10:32:44;101130.84;;;11.86;100.00
67099;BME280;54288;53.046;5.668;2023-04-28T10:38:09;101116.47;;;12.02;100.00
67099;BME280;54288;53.046;5.668;2023-04-28T10:40:36;101117.97;;;12.13;100.00
67099;BME280;54288;53.046;5.668;2023-04-28T10:43:04;101115.09;;;12.24;100.00
67099;BME280;54288;53.046;5.668;2023-04-28T10:48:21;101119.69;;;12.14;100.00
67099;BME280;54288;53.046;5.668;2023-04-28T10:56:06;101122.91;;;11.88;100.00
67099;BME280;54288;53.046;5.668;2023-04-28T10:58:32;101127.72;;;11.69;100.00
67099;BME280;54288;53.046;5.668;2023-04-28T11:06:23;101127.78;;;11.65;100.00
67099;BME280;54288;53.046;5.668;2023-04-28T11:08:57;101120.22;;;11.48;100.00
67099;BME280;54288;53.046;5.668;2023-04-28T11:11:25;101126.31;;;11.48;100.00
67099;BME280;54288;53.046;5.668;2023-04-28T11:16:54;101107.81;;;11.56;100.00
67099;BME280;54288;53.046;5.668;2023-04-28T11:19:22;101106.78;;;11.65;100.00
67099;BME280;54288;53.046;5.668;2023-04-28T11:21:53;101106.91;;;11.60;100.00
67099;BME280;54288;53.046;5.668;2023-04-28T11:24:20;101105.25;;;11.55;100.00
67099;BME280;54288;53.046;5.668;2023-04-28T11:26:46;101097.53;;;11.47;100.00
67099;BME280;54288;53.046;5.668;2023-04-28T11:29:13;101104.41;;;11.52;100.00
67099;BME280;54288;53.046;5.668;2023-04-28T11:31:49;101096.53;;;11.52;100.00
67099;BME280;54288;53.046;5.668;2023-04-28T11:34:19;101101.06;;;11.45;100.00
67099;BME280;54288;53.046;5.668;2023-04-28T11:36:48;101088.66;;;11.52;100.00
67099;BME280;54288;53.046;5.668;2023-04-28T11:39:15;101096.53;;;11.52;100.00
67099;BME280;54288;53.046;5.668;2023-04-28T11:41:43;101099.91;;;11.61;100.00
67099;BME280;54288;53.046;5.668;2023-04-28T11:44:20;101092.06;;;11.59;100.00
67099;BME280;54288;53.046;5.668;2023-04-28T11:46:54;101094.59;;;11.62;100.00
67099;BME280;54288;53.046;5.668;2023-04-28T11:49:44;101090.34;;;11.55;100.00
67099;BME280;54288;53.046;5.668;2023-04-28T11:52:12;101094.00;;;11.48;100.00
67099;BME280;54288;53.046;5.668;2023-04-28T11:54:38;101101.09;;;11.43;100.00
67099;BME280;54288;53.046;5.668;2023-04-28T11:57:16;101093.38;;;11.36;100.00
67099;BME280;54288;53.046;5.668;2023-04-28T11:59:41;101093.41;;;11.34;100.00
67099;BME280;54288;53.046;5.668;2023-04-28T12:02:07;101088.03;;;11.40;100.00
67099;BME280;54288;53.046;5.668;2023-04-28T12:04:41;101089.94;;;11.34;100.00
67099;BME280;54288;53.046;5.668;2023-04-28T12:07:18;101096.00;;;11.36;100.00
67099;BME280;54288;53.046;5.668;2023-04-28T12:09:44;101089.72;;;11.44;100.00
67099;BME280;54288;53.046;5.668;2023-04-28T12:12:13;101076.72;;;11.38;100.00
67099;BME280;54288;53.046;5.668;2023-04-28T12:17:33;101078.31;;;11.45;100.00
67099;BME280;54288;53.046;5.668;2023-04-28T12:20:01;101069.75;;;11.37;100.00
67099;BME280;54288;53.046;5.668;2023-04-28T12:22:28;101068.94;;;11.35;100.00
67099;BME280;54288;53.046;5.668;2023-04-28T12:25:07;101068.94;;;11.35;100.00
67099;BME280;54288;53.046;5.668;2023-04-28T12:27:35;101074.06;;;11.40;100.00
67099;BME280;54288;53.046;5.668;2023-04-28T12:30:22;101067.19;;;11.34;100.00
67099;BME280;54288;53.046;5.668;2023-04-28T12:32:50;101078.56;;;11.33;100.00
67099;BME280;54288;53.046;5.668;2023-04-28T12:35:16;101068.94;;;11.34;100.00
67099;BME280;54288;53.046;5.668;2023-04-28T12:37:45;101073.13;;;11.44;100.00
67099;BME280;54288;53.046;5.668;2023-04-28T12:40:11;101073.16;;;11.42;100.00
67099;BME280;54288;53.046;5.668;2023-04-28T12:42:38;101072.94;;;11.51;100.00
67099;BME280;54288;53.046;5.668;2023-04-28T12:45:05;101072.63;;;11.69;100.00
67099;BME280;54288;53.046;5.668;2023-04-28T12:47:31;101066.50;;;11.69;100.00
67099;BME280;54288;53.046;5.668;2023-04-28T12:49:57;101069.09;;;11.70;100.00
67099;BME280;54288;53.046;5.668;2023-04-28T12:52:23;101064.66;;;11.74;100.00
67099;BME280;54288;53.046;5.668;2023-04-28T12:54:49;101066.44;;;11.72;100.00
67099;BME280;54288;53.046;5.668;2023-04-28T12:57:16;101068.97;;;11.76;100.00
67099;BME280;54288;53.046;5.668;2023-04-28T12:59:43;101067.16;;;11.78;100.00
67099;BME280;54288;53.046;5.668;2023-04-28T13:02:09;101066.25;;;11.79;100.00
67099;BME280;54288;53.046;5.668;2023-04-28T13:04:34;101064.47;;;11.81;100.00
67099;BME280;54288;53.046;5.668;2023-04-28T13:07:00;101066.13;;;11.85;100.00
67099;BME280;54288;53.046;5.668;2023-04-28T13:09:27;101069.66;;;11.82;100.00
67099;BME280;54288;53.046;5.668;2023-04-28T13:11:52;101067.78;;;11.89;100.00
67099;BME280;54288;53.046;5.668;2023-04-28T13:14:19;101053.47;;;12.02;100.00
67099;BME280;54288;53.046;5.668;2023-04-28T13:16:45;101058.53;;;12.11;100.00
67099;BME280;54288;53.046;5.668;2023-04-28T13:19:12;101057.78;;;12.06;100.00
67099;BME280;54288;53.046;5.668;2023-04-28T13:21:40;101044.69;;;12.04;100.00
67099;BME280;54288;53.046;5.668;2023-04-28T13:24:07;101055.97;;;12.08;100.00
67099;BME280;54288;53.046;5.668;2023-04-28T13:26:33;101055.97;;;12.08;100.00
67099;BME280;54288;53.046;5.668;2023-04-28T13:29:00;101056.72;;;12.13;100.00
67099;BME280;54288;53.046;5.668;2023-04-28T13:31:27;101051.59;;;12.08;100.00
67099;BME280;54288;53.046;5.668;2023-04-28T13:33:55;101049.69;;;12.15;100.00
67099;BME280;54288;53.046;5.668;2023-04-28T13:39:04;101044.31;;;12.21;100.00
67099;BME280;54288;53.046;5.668;2023-04-28T13:41:36;101061.47;;;12.34;100.00
67099;BME280;54288;53.046;5.668;2023-04-28T13:44:03;101057.09;;;12.34;100.00
67099;BME280;54288;53.046;5.668;2023-04-28T13:46:32;101042.22;;;12.33;100.00
67099;BME280;54288;53.046;5.668;2023-04-28T13:51:49;101047.22;;;12.44;100.00
67099;BME280;54288;53.046;5.668;2023-04-28T13:59:39;101039.81;;;12.59;100.00
67099;BME280;54288;53.046;5.668;2023-04-28T14:04:53;101039.88;;;12.56;100.00
67099;BME280;54288;53.046;5.668;2023-04-28T14:07:25;101039.81;;;12.59;100.00
67099;BME280;54288;53.046;5.668;2023-04-28T14:12:44;101035.44;;;12.60;100.00
67099;BME280;54288;53.046;5.668;2023-04-28T14:15:11;101042.28;;;12.65;100.00
67099;BME280;54288;53.046;5.668;2023-04-28T14:17:37;101049.19;;;12.69;100.00
67099;BME280;54288;53.046;5.668;2023-04-28T14:20:04;101038.59;;;12.72;100.00
67099;BME280;54288;53.046;5.668;2023-04-28T14:22:29;101035.78;;;12.80;100.00
67099;BME280;54288;53.046;5.668;2023-04-28T14:24:55;101032.28;;;12.79;100.00
67099;BME280;54288;53.046;5.668;2023-04-28T14:27:21;101036.56;;;12.82;100.00
67099;BME280;54288;53.046;5.668;2023-04-28T14:29:47;101035.59;;;12.86;100.00
67099;BME280;54288;53.046;5.668;2023-04-28T14:32:14;101034.84;;;12.81;100.00
67099;BME280;54288;53.046;5.668;2023-04-28T14:34:41;101038.50;;;12.77;100.00
67099;BME280;54288;53.046;5.668;2023-04-28T14:37:07;101034.94;;;12.79;100.00
67099;BME280;54288;53.046;5.668;2023-04-28T14:39:33;101032.28;;;12.79;100.00
67099;BME280;54288;53.046;5.668;2023-04-28T14:42:00;101027.84;;;12.81;100.00
67099;BME280;54288;53.046;5.668;2023-04-28T14:44:26;101026.16;;;12.79;100.00
67099;BME280;54288;53.046;5.668;2023-04-28T14:46:52;101033.06;;;12.83;100.00
67099;BME280;54288;53.046;5.668;2023-04-28T14:49:18;101033.94;;;12.82;100.00
67099;BME280;54288;53.046;5.668;2023-04-28T14:51:44;101032.22;;;12.81;100.00
67099;BME280;54288;53.046;5.668;2023-04-28T14:54:10;101035.97;;;12.72;100.00
67099;BME280;54288;53.046;5.668;2023-04-28T14:56:36;101028.53;;;12.56;100.00
67099;BME280;54288;53.046;5.668;2023-04-28T14:59:02;101030.41;;;12.51;100.00
67099;BME280;54288;53.046;5.668;2023-04-28T15:01:29;101031.22;;;12.53;100.00
67099;BME280;54288;53.046;5.668;2023-04-28T15:03:54;101023.75;;;12.38;100.00
67099;BME280;54288;53.046;5.668;2023-04-28T15:06:20;101017.28;;;12.16;100.00
67099;BME280;54288;53.046;5.668;2023-04-28T15:08:46;101027.06;;;12.09;100.00
67099;BME280;54288;53.046;5.668;2023-04-28T15:11:12;101027.47;;;11.93;100.00
67099;BME280;54288;53.046;5.668;2023-04-28T15:13:38;101030.28;;;11.84;100.00
67099;BME280;54288;53.046;5.668;2023-04-28T15:16:04;101038.19;;;11.82;100.00
67099;BME280;54288;53.046;5.668;2023-04-28T15:18:30;101038.19;;;11.82;100.00
67099;BME280;54288;53.046;5.668;2023-04-28T15:20:56;101039.19;;;11.77;100.00
67099;BME280;54288;53.046;5.668;2023-04-28T15:23:22;101042.00;;;11.68;100.00